x

Buoy I01 - Eastern Maine Shelf (44034) Wave Buoy

2:04am - Thu 5th Mar 2015 All times are EST. -5 hours from GMT.

  • Sig Wave height 6.9ft
  • Peak Period 11s
  • Wind
    7mph, 9mph gusts
  • Sea Temp 35°f
  • Air Temp 36°f
  • Sea Pressure 1006.8mb
  • Buoy I01 - Eastern Maine Shelf
  • Buoy I01 - Eastern Maine Shelf

More Historic Weather Station data

Upgrade to MSW Pro to gain access to the past 30 days of data for over 8000 Wavebouys and Weather Stations around the globe.

Join Pro

Comparision Forecast

View Surf forecast
   
Thu 03/05 2:04am 7ft 11s 7 9 mph 1006.8mb 35f 36f
1:04am 8ft 11s 11 13 mph 1004.8mb 36f 37f
12:04am 7.5ft 11s 18 20 mph 1005.6mb 36f 38f
Wed 03/04 11:04pm 7.5ft 11s 16 20 mph 1005.4mb 36f 38f
10:04pm 8ft 11s  -  mph - 36f -
9:04pm 7ft 11s  -  mph - 36f -
8:04pm 8ft 8s  -  mph - 36f -
4:04pm 6ft 8s 13 16 mph 1003.9mb 37f 37f
3:04pm 6.5ft 8s 13 16 mph 1003.5mb 37f 37f
2:04pm 7ft 8s 13 16 mph 1003.7mb 37f 37f
1:04pm 7.5ft 8s 16 20 mph 1003.8mb 37f 36f
12:04pm 8ft 8s 18 20 mph 1003.1mb 37f 36f
11:04am 8ft 8s 16 20 mph 1002.6mb 37f 35f
10:04am 9.5ft 8s 16 18 mph 1002.7mb 37f 35f
9:04am 9.5ft 8s 18 20 mph 1002.9mb 37f 35f
8:04am 8ft 8s 20 25 mph 1002.3mb 37f 35f
7:04am 11ft 8s 20 25 mph 1001.1mb 37f 36f
6:04am 7.5ft 8s 20 25 mph 999.8mb 37f 37f
5:04am 9.5ft 8s 11 13 mph 1001mb 37f 36f
4:04am 9ft 8s 18 20 mph 1001.8mb 37f 36f
3:04am 10ft 8s  -  mph - 37f -
1:04am 10ft 8s  -  mph - 37f -
Tue 03/03 11:04pm 8ft 5s 29 36 mph 1012.4mb 37f 30f
10:04pm 6ft 5s 27 34 mph 1014.8mb 37f 31f
9:04pm 4ft 4s 27 34 mph 1016.6mb 37f 32f
7:04pm 2ft 3s 18 20 mph 1020.2mb 37f 29f
6:04pm 1.3ft 4s 13 16 mph 1021mb 38f 28f
5:04pm 2.5ft 11s 7 11 mph 1022mb 38f 26f
4:04pm 1.6ft 4s 9 11 mph 1023.2mb 38f 25f
2:04pm 2.5ft 4s 13 20 mph 1024.2mb 38f 24f
1:04pm 3.5ft 11s  -  mph - 37f -
12:04pm 2.5ft 4s 16 20 mph 1025.3mb 38f 21f
11:04am 3.5ft 4s 18 25 mph 1025.6mb 38f 20f
10:04am 3.5ft 4s 18 22 mph 1025.9mb 38f 19f
9:04am 4ft 4s 22 29 mph 1025.8mb 37f 19f
8:04am 4ft 4s 25 31 mph 1025.9mb 37f 19f
7:04am 4ft 4s 25 31 mph 1025.3mb 37f 18f
6:04am 4.5ft 5s 27 34 mph 1024.2mb 37f 19f
5:04am 4.5ft 5s 29 38 mph 1023.4mb 37f 19f
4:04am 5ft 4s 27 29 mph 1022.4mb 37f 20f
3:04am 5ft 4s 27 34 mph 1021.2mb 37f 20f
2:04am 5ft 5s  -  mph - 38f -
1:04am 7ft 5s  -  mph - 37f -
12:04am 7ft 5s  -  mph - 37f -
Mon 03/02 10:04pm 6ft 5s 31 36 mph 1014.5mb 38f 27f
9:04pm 5.5ft 5s 29 34 mph 1013.6mb 38f 29f
8:04pm 5.5ft 4s 36 45 mph 1012.7mb 38f 30f
7:04pm 6ft 5s 29 34 mph 1011.8mb 38f 30f
6:04pm 5ft 5s 27 34 mph 1010.3mb 38f 31f
5:04pm 5.5ft 5s 27 34 mph 1009mb 38f 31f
4:04pm 5.5ft 4s 31 36 mph 1007.9mb 38f 32f
3:04pm 4.5ft 5s 27 34 mph 1007.2mb 38f 31f
2:04pm 4ft 4s 25 31 mph 1007mb 38f 31f
1:04pm 3.5ft 6s 22 29 mph 1007.1mb 38f 31f
12:04pm 4ft 6s 18 25 mph 1007.6mb 38f 29f
11:04am 4ft 6s 18 20 mph 1007.9mb 38f 28f
10:04am 4ft 6s 16 20 mph 1008.1mb 38f 28f
9:04am 4ft 6s 18 22 mph 1009mb 38f 28f
8:04am 4.5ft 6s 16 20 mph 1009.2mb 38f 27f
7:04am 4ft 6s 13 18 mph 1009.9mb 38f 28f
6:04am 4.5ft 6s 13 16 mph 1010.1mb 38f 28f
5:04am 4.5ft 6s 13 16 mph 1010.7mb 38f 28f
4:04am 5ft 6s 13 18 mph 1011.8mb 38f 29f
3:04am 5ft 6s  -  mph - 38f -
2:04am 5ft 6s  -  mph - 38f -
1:04am 6ft 6s  -  mph - 38f -
Sun 03/01 9:04pm 5ft 6s  -  mph - 38f -
3:04pm 2.5ft 11s 16 18 mph 1029.8mb 38f 33f
2:04pm 2ft 8s 11 16 mph 1030.9mb 38f 32f
1:04pm 1.3ft 5s 9 11 mph 1032.5mb 38f 29f
12:04pm 1.6ft 8s 11 13 mph 1033.8mb 38f 28f
11:04am 1.6ft 8s 7 9 mph 1035.7mb 38f 27f
10:04am 1.6ft 8s 9 11 mph 1036.1mb 38f 27f
9:04am 1.6ft 11s 4 9 mph 1037mb 38f 26f